createdAt,value
2023-02-09T00:03:19.200Z,99537.03
2023-02-09T00:08:37.566Z,99538.72
2023-02-09T00:13:44.394Z,99541.56
2023-02-09T00:18:46.850Z,99533.41
2023-02-09T00:23:49.305Z,99526.19
2023-02-09T00:28:52.020Z,99517.03
2023-02-09T00:33:56.291Z,99519.38
2023-02-09T00:39:00.083Z,99526.31
2023-02-09T00:44:02.476Z,99527.72
2023-02-09T00:49:05.760Z,99522.38
2023-02-09T00:54:08.347Z,99521.09
2023-02-09T00:59:11.457Z,99519.06
2023-02-09T01:04:14.043Z,99515.41
2023-02-09T01:09:16.554Z,99515.88
2023-02-09T01:14:19.529Z,99510.91
2023-02-09T01:19:22.048Z,99503.25
2023-02-09T01:24:24.503Z,99493.41
2023-02-09T01:29:26.951Z,99493.84
2023-02-09T01:34:30.229Z,99494.47
2023-02-09T01:39:33.327Z,99492.94
2023-02-09T01:44:35.777Z,99494.34
2023-02-09T01:49:38.666Z,99477.09
2023-02-09T01:54:45.737Z,99489.25
2023-02-09T01:59:53.552Z,99483.09
2023-02-09T02:04:56.121Z,99473.81
2023-02-09T02:10:00.249Z,99479.47
2023-02-09T02:15:03.034Z,99466.72
2023-02-09T02:20:27.180Z,99466.06
2023-02-09T02:25:51.210Z,99462.34
2023-02-09T02:30:53.690Z,99471.72
2023-02-09T02:36:09.081Z,99474.44
2023-02-09T02:41:26.030Z,99468.44
2023-02-09T02:46:46.719Z,99465.88
2023-02-09T02:51:53.951Z,99474.13
2023-02-09T02:57:07.594Z,99467.59
2023-02-09T03:02:22.630Z,99470.53
2023-02-09T03:07:25.508Z,99459.91
2023-02-09T03:12:52.196Z,99460.56
2023-02-09T03:24:35.892Z,99478.63
2023-02-09T03:29:41.208Z,99474.41
2023-02-09T03:34:44.751Z,99472.94
2023-02-09T03:39:47.419Z,99471.91
2023-02-09T03:44:49.844Z,99466.09
2023-02-09T03:49:52.307Z,99466.44
2023-02-09T03:54:54.761Z,99465.63
2023-02-09T03:59:57.141Z,99471.56
2023-02-09T04:05:00.033Z,99456.00
2023-02-09T04:10:03.237Z,99461.50
2023-02-09T04:15:06.109Z,99471.59
2023-02-09T04:20:08.832Z,99471.16
2023-02-09T04:25:11.306Z,99475.97
2023-02-09T04:30:14.035Z,99470.91
2023-02-09T04:35:16.580Z,99479.78
2023-02-09T04:40:19.086Z,99483.31
2023-02-09T04:45:21.511Z,99490.22
2023-02-09T04:50:24.164Z,99497.19
2023-02-09T04:55:26.793Z,99487.00
2023-02-09T05:00:29.715Z,99483.69
2023-02-09T05:05:32.491Z,99479.28
2023-02-09T05:10:35.407Z,99482.44
2023-02-09T05:15:37.851Z,99479.78
2023-02-09T05:20:40.436Z,99464.69
2023-02-09T05:25:42.902Z,99463.84
2023-02-09T05:30:47.363Z,99456.88
2023-02-09T05:35:51.819Z,99460.03
2023-02-09T05:40:54.277Z,99458.00
2023-02-09T05:45:56.857Z,99463.56
2023-02-09T05:50:59.706Z,99463.09
2023-02-09T05:56:02.151Z,99461.00
2023-02-09T06:01:05.569Z,99460.19
2023-02-09T06:06:08.164Z,99456.88
2023-02-09T06:11:10.586Z,99468.03
2023-02-09T06:16:13.013Z,99491.66
2023-02-09T06:21:15.453Z,99492.47
2023-02-09T06:26:18.736Z,99481.63
2023-02-09T06:31:21.212Z,99492.34
2023-02-09T06:36:23.839Z,99494.66
2023-02-09T06:41:26.379Z,99502.38
2023-02-09T06:46:29.318Z,99508.94
2023-02-09T06:51:31.907Z,99506.94
2023-02-09T06:56:34.464Z,99518.81
2023-02-09T07:01:37.535Z,99513.72
2023-02-09T07:06:39.982Z,99519.91
2023-02-09T07:11:42.696Z,99516.81
2023-02-09T07:16:45.151Z,99521.00
2023-02-09T07:21:48.723Z,99529.97
2023-02-09T07:26:51.675Z,99528.88
2023-02-09T07:31:54.164Z,99536.44
2023-02-09T07:36:56.749Z,99546.50
2023-02-09T07:41:59.667Z,99546.56
2023-02-09T07:47:18.592Z,99538.91
2023-02-09T07:52:21.002Z,99539.06
2023-02-09T07:57:23.615Z,99538.91
2023-02-09T08:02:45.085Z,99538.88
2023-02-09T08:07:47.815Z,99545.13
2023-02-09T08:12:59.926Z,99531.88
2023-02-09T08:18:08.385Z,99532.47
2023-02-09T08:23:15.985Z,99557.13
2023-02-09T08:28:19.937Z,99556.13
2023-02-09T08:33:25.569Z,99537.94
2023-02-09T08:38:28.135Z,99542.44
2023-02-09T08:43:31.406Z,99542.69
2023-02-09T08:48:36.143Z,99541.97
2023-02-09T08:53:38.741Z,99558.81
2023-02-09T08:58:41.177Z,99552.03
2023-02-09T09:03:43.872Z,99552.47
2023-02-09T09:08:46.317Z,99543.34
2023-02-09T09:13:49.086Z,99550.06
2023-02-09T09:18:51.497Z,99549.56
2023-02-09T09:23:54.038Z,99548.25
2023-02-09T09:28:56.640Z,99562.25
2023-02-09T09:34:00.025Z,99555.97
2023-02-09T09:39:02.580Z,99563.66
2023-02-09T09:44:19.428Z,99574.75
2023-02-09T09:49:24.344Z,99564.25
2023-02-09T09:54:30.301Z,99571.81
2023-02-09T09:59:39.851Z,99585.28
2023-02-09T10:04:42.572Z,99580.41
2023-02-09T10:09:57.401Z,99573.25
2023-02-09T10:15:15.715Z,99569.31
2023-02-09T10:20:18.490Z,99580.97
2023-02-09T10:25:52.470Z,99569.56
2023-02-09T10:30:57.904Z,99574.81
2023-02-09T10:36:03.232Z,99577.34
2023-02-09T10:41:10.575Z,99564.94
2023-02-09T10:46:18.117Z,99565.41
2023-02-09T10:51:31.450Z,99562.63
2023-02-09T10:56:44.836Z,99548.88
2023-02-09T11:01:59.502Z,99543.31
2023-02-09T11:07:10.270Z,99548.56
2023-02-09T11:12:13.704Z,99549.81
2023-02-09T11:17:28.270Z,99543.09
2023-02-09T11:22:36.728Z,99541.38
2023-02-09T11:27:48.045Z,99523.81
2023-02-09T11:32:59.700Z,99511.31
2023-02-09T11:38:15.687Z,99515.06
2023-02-09T11:43:39.354Z,99495.88
2023-02-09T11:48:50.580Z,99492.50
2023-02-09T11:54:24.705Z,99492.34
2023-02-09T11:59:39.305Z,99486.56
2023-02-09T12:05:02.164Z,99481.41
2023-02-09T12:10:35.276Z,99471.06
2023-02-09T12:15:56.588Z,99465.47
2023-02-09T12:21:07.730Z,99466.88
2023-02-09T12:26:16.434Z,99463.03
2023-02-09T12:31:25.694Z,99466.34
2023-02-09T12:36:31.526Z,99459.03
2023-02-09T12:41:41.262Z,99453.19
2023-02-09T12:46:53.628Z,99452.91
2023-02-09T12:52:02.190Z,99459.13
2023-02-09T12:57:17.344Z,99458.78
2023-02-09T13:02:50.739Z,99455.34
2023-02-09T13:08:13.221Z,99440.44
2023-02-09T13:13:27.412Z,99450.00
2023-02-09T13:18:37.611Z,99461.34
2023-02-09T13:24:01.890Z,99456.88
2023-02-09T13:29:22.323Z,99458.75
2023-02-09T13:34:33.382Z,99465.22
2023-02-09T13:39:40.940Z,99456.81
2023-02-09T13:44:45.974Z,99458.81
2023-02-09T13:50:11.943Z,99469.38
2023-02-09T13:55:27.512Z,99474.47
2023-02-09T14:00:45.957Z,99473.47
2023-02-09T14:05:51.138Z,99473.44
2023-02-09T14:10:59.658Z,99465.09
2023-02-09T14:16:07.394Z,99472.25
2023-02-09T14:21:15.958Z,99482.69
2023-02-09T14:26:29.336Z,99487.25
2023-02-09T14:31:35.459Z,99498.22
2023-02-09T14:36:38.427Z,99491.66
2023-02-09T14:41:40.928Z,99494.78
2023-02-09T14:46:54.724Z,99494.41
2023-02-09T14:52:06.362Z,99497.28
2023-02-09T14:57:12.101Z,99501.28
2023-02-09T15:02:21.332Z,99498.19
2023-02-09T15:07:36.470Z,99503.56
2023-02-09T15:12:39.113Z,99499.28
2023-02-09T15:17:41.577Z,99510.81
2023-02-09T15:22:44.338Z,99506.81
2023-02-09T15:27:51.749Z,99514.84
2023-02-09T15:32:54.454Z,99503.06
2023-02-09T15:37:59.923Z,99521.56
2023-02-09T15:43:21.316Z,99525.06
2023-02-09T15:48:23.806Z,99528.25
2023-02-09T15:53:26.823Z,99538.81
2023-02-09T15:58:35.968Z,99542.97
2023-02-09T16:03:38.461Z,99554.19
2023-02-09T16:08:40.952Z,99548.56
2023-02-09T16:13:43.358Z,99549.72
2023-02-09T16:18:47.169Z,99559.00
2023-02-09T16:23:50.810Z,99561.94
2023-02-09T16:28:54.293Z,99567.78
2023-02-09T16:33:56.882Z,99572.13
2023-02-09T16:38:59.718Z,99578.78
2023-02-09T16:44:22.947Z,99580.47
2023-02-09T16:49:36.349Z,99585.63
2023-02-09T16:54:44.948Z,99583.22
2023-02-09T16:59:47.461Z,99598.69
2023-02-09T17:04:49.856Z,99597.66
2023-02-09T17:09:52.246Z,99599.84
2023-02-09T17:14:54.680Z,99599.84
2023-02-09T17:19:58.589Z,99613.88
2023-02-09T17:25:01.228Z,99620.28
2023-02-09T17:30:04.448Z,99625.09
2023-02-09T17:35:47.917Z,99618.09
2023-02-09T17:40:47.127Z,99621.13
2023-02-09T17:45:53.199Z,99626.00
2023-02-09T17:50:59.174Z,99636.53
2023-02-09T17:56:02.658Z,99637.41
2023-02-09T18:01:26.090Z,99632.03
2023-02-09T18:06:40.881Z,99634.41
2023-02-09T18:11:52.161Z,99638.72
2023-02-09T18:16:55.316Z,99642.69
2023-02-09T18:21:59.922Z,99639.72
2023-02-09T18:27:03.380Z,99641.66
2023-02-09T18:32:06.700Z,99645.41
2023-02-09T18:37:09.211Z,99658.88
2023-02-09T18:42:13.903Z,99663.13
2023-02-09T18:47:16.408Z,99675.91
2023-02-09T18:52:20.898Z,99677.50
2023-02-09T18:57:23.345Z,99677.22
2023-02-09T19:02:25.900Z,99682.28
2023-02-09T19:07:28.877Z,99689.28
2023-02-09T19:12:31.874Z,99695.34
2023-02-09T19:17:34.739Z,99700.25
2023-02-09T19:22:38.474Z,99706.16
2023-02-09T19:27:41.189Z,99703.94
2023-02-09T19:32:44.408Z,99713.59
2023-02-09T19:37:49.507Z,99721.97
2023-02-09T19:42:51.933Z,99712.03
2023-02-09T19:47:54.431Z,99716.47
2023-02-09T19:52:57.443Z,99714.50
2023-02-09T19:58:00.050Z,99707.31
2023-02-09T20:03:02.777Z,99711.34
2023-02-09T20:08:05.432Z,99724.06
2023-02-09T20:13:08.678Z,99723.69
2023-02-09T20:18:12.671Z,99718.84
2023-02-09T20:23:17.401Z,99714.41
2023-02-09T20:28:21.270Z,99717.06
2023-02-09T20:33:24.012Z,99717.59
2023-02-09T20:38:26.550Z,99706.13
2023-02-09T20:43:48.009Z,99708.31
2023-02-09T20:48:50.860Z,99713.75
2023-02-09T20:53:53.345Z,99729.31
2023-02-09T20:58:56.139Z,99742.94
2023-02-09T21:04:00.580Z,99755.28
2023-02-09T21:09:04.716Z,99743.50
2023-02-09T21:14:07.599Z,99747.50
2023-02-09T21:19:11.097Z,99755.03
2023-02-09T21:24:13.689Z,99754.53
2023-02-09T21:29:16.360Z,99758.16
2023-02-09T21:34:19.452Z,99761.13
2023-02-09T21:39:21.935Z,99765.34
2023-02-09T21:44:24.725Z,99774.59
2023-02-09T21:49:27.514Z,99773.50
2023-02-09T21:54:34.052Z,99780.56
2023-02-09T21:59:36.746Z,99785.97
2023-02-09T22:04:39.823Z,99791.63
2023-02-09T22:09:42.409Z,99796.75
2023-02-09T22:14:44.786Z,99791.34
2023-02-09T22:19:47.544Z,99799.47
2023-02-09T22:24:49.978Z,99801.03
2023-02-09T22:29:52.417Z,99797.16
2023-02-09T22:34:54.914Z,99808.63
2023-02-09T22:39:57.438Z,99812.16
2023-02-09T22:44:59.935Z,99813.63
2023-02-09T22:50:02.762Z,99822.06
2023-02-09T22:55:05.505Z,99828.28
2023-02-09T23:00:11.845Z,99830.78
2023-02-09T23:05:14.593Z,99833.19
2023-02-09T23:10:18.296Z,99826.75
2023-02-09T23:15:20.913Z,99824.84
2023-02-09T23:20:23.699Z,99838.28
2023-02-09T23:25:26.099Z,99839.72
2023-02-09T23:30:28.610Z,99839.69
2023-02-09T23:35:31.537Z,99842.84
2023-02-09T23:40:34.593Z,99840.28
2023-02-09T23:45:37.089Z,99849.31
2023-02-09T23:50:39.511Z,99850.69
2023-02-09T23:55:42.179Z,99856.38
